Time;durP1;ratioP1;P1;durP2;ratioP2;P2;SDS_P1;SDS_P2;PMS_P1;PMS_P2;Temp;Humidity;BMP_temperature;BMP_pressure;BME280_temperature;BME280_humidity;BME280_pressure;Samples;Min_cycle;Max_cycle;Signal;HPM_P1;HPM_P2
2023/02/13 00:02:14;;;;;;;5.22;4.80;;;16.00;54.40;;;;;;5113982;28;20647;-56
2023/02/13 00:04:41;;;;;;;5.65;5.15;;;16.00;54.40;;;;;;5112883;28;20169;-55
2023/02/13 00:07:07;;;;;;;6.00;5.40;;;16.00;54.40;;;;;;5113807;28;20540;-55
2023/02/13 00:09:33;;;;;;;5.40;4.90;;;16.00;54.40;;;;;;5113404;28;20518;-53
2023/02/13 00:11:58;;;;;;;5.05;4.55;;;16.00;54.40;;;;;;5112647;28;20653;-51
2023/02/13 00:14:24;;;;;;;5.30;4.90;;;16.00;54.40;;;;;;5113563;28;20173;-52
2023/02/13 00:16:49;;;;;;;4.93;4.53;;;16.00;54.40;;;;;;5113239;28;20231;-55
2023/02/13 00:19:15;;;;;;;5.30;4.80;;;16.00;54.40;;;;;;5112596;28;20299;-55
2023/02/13 00:21:41;;;;;;;5.40;4.85;;;16.00;54.40;;;;;;5113271;28;20680;-55
2023/02/13 00:24:06;;;;;;;4.53;4.13;;;16.00;54.40;;;;;;5113539;28;20200;-55
2023/02/13 00:26:32;;;;;;;5.30;4.90;;;16.00;54.40;;;;;;5112717;28;20165;-53
2023/02/13 00:28:58;;;;;;;4.82;4.43;;;15.90;54.30;;;;;;5113714;28;20635;-54
2023/02/13 00:31:23;;;;;;;5.45;4.97;;;16.00;55.00;;;;;;5113746;28;20698;-50
2023/02/13 00:33:49;;;;;;;5.57;5.07;;;16.00;54.40;;;;;;5112441;28;20226;-53
2023/02/13 00:36:18;;;;;;;5.55;4.97;;;16.00;54.40;;;;;;5113399;28;20297;-54
2023/02/13 00:38:44;;;;;;;4.97;4.57;;;15.90;54.40;;;;;;5113239;28;20281;-55
2023/02/13 00:41:10;;;;;;;5.45;4.95;;;16.00;54.40;;;;;;5112797;28;20615;-54
2023/02/13 00:43:35;;;;;;;5.20;4.80;;;15.90;54.40;;;;;;5113131;28;20177;-56
2023/02/13 00:46:01;;;;;;;5.68;5.18;;;16.00;55.00;;;;;;5113515;28;20195;-54
2023/02/13 00:48:27;;;;;;;5.20;4.70;;;16.00;54.30;;;;;;5112652;28;20173;-54
2023/02/13 00:50:53;;;;;;;4.45;4.05;;;15.90;54.30;;;;;;5113068;28;20173;-53
2023/02/13 00:53:20;;;;;;;4.65;4.25;;;15.90;54.30;;;;;;5113214;28;20199;-53
2023/02/13 00:55:46;;;;;;;5.45;5.05;;;15.90;54.30;;;;;;5112384;28;20172;-54
2023/02/13 00:58:12;;;;;;;5.13;4.72;;;15.90;54.30;;;;;;5113018;28;20555;-55
2023/02/13 01:00:37;;;;;;;5.28;4.78;;;15.90;54.30;;;;;;5112897;28;20176;-55
2023/02/13 01:03:03;;;;;;;5.38;4.95;;;15.90;54.30;;;;;;5112624;28;20250;-55
2023/02/13 01:05:29;;;;;;;5.10;4.65;;;15.90;54.30;;;;;;5113333;28;20218;-56
2023/02/13 01:07:54;;;;;;;4.80;4.40;;;15.90;54.30;;;;;;5114980;28;20184;-54
2023/02/13 01:10:20;;;;;;;5.25;4.75;;;15.90;54.20;;;;;;5117392;28;20174;-55
2023/02/13 01:12:45;;;;;;;5.10;4.70;;;15.90;54.30;;;;;;5116995;28;20177;-54
2023/02/13 01:15:11;;;;;;;4.80;4.40;;;15.90;54.20;;;;;;5116289;28;20252;-54
2023/02/13 01:17:38;;;;;;;5.45;4.95;;;15.90;54.20;;;;;;5116702;28;20721;-55
2023/02/13 01:20:05;;;;;;;5.15;4.72;;;15.80;54.20;;;;;;5117304;28;20204;-56
2023/02/13 01:22:31;;;;;;;4.72;4.35;;;15.90;54.30;;;;;;5116414;28;20639;-55
2023/02/13 01:24:56;;;;;;;5.43;4.93;;;15.80;54.20;;;;;;5116957;28;20173;-55
2023/02/13 01:27:22;;;;;;;5.75;4.80;;;15.80;54.20;;;;;;5116715;28;20173;-54
2023/02/13 01:29:47;;;;;;;5.22;4.68;;;15.80;54.20;;;;;;5115685;28;20169;-55
2023/02/13 01:32:13;;;;;;;5.55;5.13;;;15.80;54.20;;;;;;5116812;28;20183;-55
2023/02/13 01:34:39;;;;;;;5.13;4.65;;;15.80;54.10;;;;;;5116682;28;20506;-56
2023/02/13 01:37:04;;;;;;;5.65;5.15;;;15.80;54.20;;;;;;5116010;28;20264;-54
2023/02/13 01:39:30;;;;;;;5.10;4.70;;;15.80;54.20;;;;;;5116525;28;20217;-55
2023/02/13 01:41:55;;;;;;;4.88;4.47;;;15.80;54.10;;;;;;5116455;28;20177;-56
2023/02/13 01:45:03;;;;;;;4.95;4.50;;;15.80;54.10;;;;;;5115857;28;20237;-55
2023/02/13 01:47:40;;;;;;;5.10;4.70;;;15.80;54.10;;;;;;5108022;28;20189;-55
2023/02/13 01:50:30;;;;;;;5.40;4.90;;;15.80;54.10;;;;;;5114851;28;20177;-55
2023/02/13 01:53:15;;;;;;;5.07;4.60;;;15.80;54.10;;;;;;5115258;28;20610;-51
2023/02/13 01:55:49;;;;;;;4.82;4.43;;;15.80;54.10;;;;;;5116097;28;20260;-55
2023/02/13 01:58:17;;;;;;;5.30;4.80;;;15.80;54.10;;;;;;5114416;28;20204;-54
2023/02/13 02:00:43;;;;;;;5.90;4.78;;;15.80;54.10;;;;;;5114932;28;20173;-55
2023/02/13 02:03:15;;;;;;;4.78;4.38;;;15.80;54.10;;;;;;5115013;28;20179;-56
2023/02/13 02:05:41;;;;;;;5.20;4.75;;;15.80;54.10;;;;;;5113922;28;20177;-55
2023/02/13 02:08:08;;;;;;;5.00;4.60;;;15.70;54.00;;;;;;5116039;28;20180;-54
2023/02/13 02:10:33;;;;;;;5.55;5.00;;;15.70;54.00;;;;;;5116043;28;20177;-52
2023/02/13 02:13:12;;;;;;;5.68;5.18;;;15.70;54.00;;;;;;5115357;28;20173;-54
2023/02/13 02:15:37;;;;;;;5.47;4.97;;;15.80;54.00;;;;;;5115559;28;20181;-52
2023/02/13 02:18:09;;;;;;;5.45;4.95;;;15.70;54.00;;;;;;5115021;28;20464;-55
2023/02/13 02:21:05;;;;;;;5.60;4.80;;;15.80;54.00;;;;;;5114461;28;20204;-55
2023/02/13 02:23:52;;;;;;;5.57;5.07;;;15.70;54.00;;;;;;5116032;28;20204;-52
2023/02/13 02:26:35;;;;;;;5.32;4.82;;;15.70;54.00;;;;;;5115056;28;20230;-54
2023/02/13 02:29:24;;;;;;;5.28;4.78;;;15.70;54.00;;;;;;5115676;28;20260;-53
2023/02/13 02:31:52;;;;;;;4.93;4.53;;;15.70;54.00;;;;;;5114429;28;20291;-55
2023/02/13 02:34:41;;;;;;;5.38;4.93;;;15.70;54.00;;;;;;5114970;28;20169;-56
2023/02/13 02:37:28;;;;;;;5.30;4.80;;;15.70;54.00;;;;;;5115472;28;20169;-55
2023/02/13 02:40:03;;;;;;;5.68;5.20;;;15.70;54.00;;;;;;5114589;28;20270;-55
2023/02/13 02:43:16;;;;;;;4.55;4.22;;;15.70;54.00;;;;;;5115608;28;20173;-55
2023/02/13 02:45:48;;;;;;;5.30;4.82;;;15.70;54.00;;;;;;5067676;28;20185;-54
2023/02/13 02:51:22;;;;;;;5.13;4.72;;;15.70;54.00;;;;;;5114522;28;20676;-55
2023/02/13 02:54:01;;;;;;;6.20;5.13;;;15.70;54.00;;;;;;5113212;28;20184;-54
2023/02/13 02:56:39;;;;;;;4.75;4.35;;;15.70;54.00;;;;;;5114142;28;20576;-55
2023/02/13 03:07:26;;;;;;;5.47;4.97;;;15.60;54.00;;;;;;5113254;28;20216;-54
2023/02/13 03:24:09;;;;;;;4.50;4.15;;;15.60;53.90;;;;;;5099637;28;20546;-53
2023/02/13 03:26:53;;;;;;;5.03;4.63;;;15.60;53.90;;;;;;5096570;28;20314;-50
2023/02/13 03:32:45;;;;;;;5.28;4.82;;;15.60;53.90;;;;;;5114355;28;20229;-55
2023/02/13 03:38:14;;;;;;;4.93;4.53;;;15.60;53.90;;;;;;5114283;28;20574;-51
2023/02/13 03:41:17;;;;;;;5.78;5.28;;;15.60;54.00;;;;;;5096738;28;20175;-53
2023/02/13 03:43:29;;;;;;;5.57;4.75;;;15.60;53.90;;;;;;5112536;28;20184;-55
2023/02/13 03:45:57;;;;;;;5.35;4.95;;;15.60;53.90;;;;;;5095923;28;20252;-53
2023/02/13 03:51:31;;;;;;;5.25;4.82;;;15.60;53.90;;;;;;5112546;28;20200;-50
2023/02/13 03:53:59;;;;;;;5.15;4.75;;;15.60;53.90;;;;;;5096702;28;20201;-51
2023/02/13 03:59:15;;;;;;;5.55;5.05;;;15.50;53.90;;;;;;5098380;28;20212;-51
2023/02/13 04:01:58;;;;;;;5.25;4.85;;;15.50;53.90;;;;;;5112779;28;20279;-54
2023/02/13 04:04:51;;;;;;;4.68;4.28;;;15.50;53.90;;;;;;5112138;28;20658;-56
2023/02/13 04:07:29;;;;;;;5.38;4.88;;;15.50;53.90;;;;;;5082866;28;20597;-55
2023/02/13 04:09:57;;;;;;;5.10;4.70;;;15.50;53.90;;;;;;5112633;28;20179;-53
2023/02/13 04:12:45;;;;;;;5.50;4.85;;;15.50;53.90;;;;;;5111770;28;20662;-55
2023/02/13 04:15:28;;;;;;;5.60;5.10;;;15.50;53.90;;;;;;5083237;28;20181;-55
2023/02/13 04:18:11;;;;;;;5.28;4.80;;;15.50;53.90;;;;;;5111584;28;20731;-55
2023/02/13 04:20:37;;;;;;;5.25;4.78;;;15.50;53.90;;;;;;5095662;28;20181;-56
2023/02/13 04:23:07;;;;;;;5.40;5.00;;;15.50;53.90;;;;;;5113763;28;20513;-54
2023/02/13 04:25:32;;;;;;;5.88;5.28;;;15.40;53.80;;;;;;5112287;28;20236;-54
2023/02/13 04:27:58;;;;;;;5.30;4.90;;;15.50;53.90;;;;;;5113487;28;20260;-56
2023/02/13 04:30:23;;;;;;;5.50;4.97;;;15.50;53.80;;;;;;5113672;28;20380;-51
2023/02/13 04:32:50;;;;;;;6.00;5.25;;;15.50;54.50;;;;;;5112885;28;20252;-54
2023/02/13 04:35:16;;;;;;;5.50;5.00;;;15.40;53.80;;;;;;5113662;28;20192;-55
2023/02/13 04:37:42;;;;;;;5.22;4.72;;;15.50;53.90;;;;;;5113251;28;20175;-55
2023/02/13 04:40:08;;;;;;;5.25;4.75;;;15.50;53.90;;;;;;5112580;28;20186;-56
2023/02/13 04:42:33;;;;;;;4.60;4.20;;;15.50;53.90;;;;;;5112566;28;20319;-55
2023/02/13 04:44:59;;;;;;;4.75;4.35;;;15.50;53.90;;;;;;5113328;28;20698;-55
2023/02/13 04:47:24;;;;;;;5.55;5.05;;;15.40;53.80;;;;;;5112605;28;20259;-54
2023/02/13 04:49:50;;;;;;;5.50;5.00;;;15.40;53.80;;;;;;5113081;28;20279;-55
2023/02/13 04:52:16;;;;;;;5.68;5.18;;;15.40;53.80;;;;;;5113471;28;20263;-55
2023/02/13 04:54:41;;;;;;;5.25;4.85;;;15.40;53.80;;;;;;5112083;28;20165;-54
2023/02/13 04:57:07;;;;;;;5.50;5.00;;;15.40;53.80;;;;;;5113422;28;20177;-55
2023/02/13 04:59:32;;;;;;;6.00;5.47;;;15.40;53.80;;;;;;5112725;28;20675;-55
2023/02/13 05:01:58;;;;;;;4.93;4.53;;;15.40;53.80;;;;;;5112397;28;20172;-56
2023/02/13 05:04:24;;;;;;;5.63;5.07;;;15.40;53.80;;;;;;5113189;28;20188;-54
2023/02/13 05:06:50;;;;;;;5.72;5.22;;;15.40;53.80;;;;;;5113084;28;20215;-56
2023/02/13 05:09:15;;;;;;;6.03;5.53;;;15.40;53.80;;;;;;5112375;28;20542;-55
2023/02/13 05:11:41;;;;;;;5.55;5.05;;;15.40;53.80;;;;;;5112499;28;20208;-54
2023/02/13 05:14:06;;;;;;;4.70;4.35;;;15.40;53.80;;;;;;5112313;28;20173;-56
2023/02/13 05:16:32;;;;;;;5.50;5.00;;;15.30;53.80;;;;;;5112798;28;20217;-55
2023/02/13 05:18:57;;;;;;;5.45;4.95;;;15.40;53.80;;;;;;5113091;28;20201;-56
2023/02/13 05:24:07;;;;;;;5.22;4.72;;;15.30;53.80;;;;;;5113034;28;20184;-53
2023/02/13 05:26:33;;;;;;;5.30;4.80;;;15.40;53.80;;;;;;5112830;28;20169;-51
2023/02/13 05:31:42;;;;;;;5.30;4.80;;;15.40;53.80;;;;;;5112583;28;20221;-53
2023/02/13 05:34:08;;;;;;;5.47;4.97;;;15.30;53.80;;;;;;5112490;28;20189;-55
2023/02/13 05:36:33;;;;;;;5.35;4.95;;;15.40;53.80;;;;;;5111696;28;20242;-55
2023/02/13 05:38:59;;;;;;;5.40;4.90;;;15.30;53.80;;;;;;5112981;28;20273;-56
2023/02/13 05:41:24;;;;;;;5.53;5.03;;;15.40;53.80;;;;;;5112904;28;20181;-56
2023/02/13 05:43:50;;;;;;;5.25;4.75;;;15.40;53.80;;;;;;5111923;28;20260;-53
2023/02/13 05:46:15;;;;;;;5.50;5.00;;;15.30;53.80;;;;;;5112831;28;20265;-54
2023/02/13 05:48:41;;;;;;;5.63;5.05;;;15.30;53.80;;;;;;5112472;28;20695;-56
2023/02/13 05:51:09;;;;;;;5.40;4.90;;;15.30;53.80;;;;;;5111682;28;20169;-55
2023/02/13 05:53:35;;;;;;;5.82;5.30;;;15.30;53.80;;;;;;5112998;28;20324;-54
2023/02/13 05:56:01;;;;;;;5.57;5.07;;;15.30;53.80;;;;;;5116552;28;20699;-55
2023/02/13 05:58:27;;;;;;;6.30;5.70;;;15.30;54.40;;;;;;5115481;28;20604;-56
2023/02/13 06:00:54;;;;;;;5.28;4.80;;;15.30;53.80;;;;;;5115782;28;20176;-55
2023/02/13 06:03:20;;;;;;;5.50;5.00;;;15.30;53.70;;;;;;5115471;28;20260;-56
2023/02/13 06:05:45;;;;;;;5.53;5.03;;;15.40;53.70;;;;;;5115648;28;20260;-56
2023/02/13 06:08:11;;;;;;;5.03;4.50;;;15.50;53.70;;;;;;5116318;28;20267;-56
2023/02/13 06:10:37;;;;;;;4.50;4.10;;;15.50;53.70;;;;;;5115225;28;20259;-55
2023/02/13 06:13:02;;;;;;;5.03;4.63;;;15.60;53.70;;;;;;5116183;28;20265;-55
2023/02/13 06:15:28;;;;;;;5.03;4.63;;;15.60;53.60;;;;;;5116145;28;20295;-55
2023/02/13 06:17:53;;;;;;;4.57;4.18;;;15.70;53.50;;;;;;5114356;28;20424;-56
2023/02/13 06:20:19;;;;;;;5.20;4.28;;;15.80;53.40;;;;;;5115867;28;20173;-55
2023/02/13 06:22:49;;;;;;;4.13;3.75;;;15.80;53.30;;;;;;5115660;28;20169;-54
2023/02/13 06:25:18;;;;;;;4.70;4.30;;;15.90;53.20;;;;;;5114977;28;20708;-54
2023/02/13 06:27:44;;;;;;;5.03;4.63;;;16.00;53.10;;;;;;5115357;28;20557;-51
2023/02/13 06:30:10;;;;;;;4.38;4.03;;;16.00;53.00;;;;;;5115548;28;20177;-55
2023/02/13 06:32:35;;;;;;;4.95;4.45;;;16.00;53.00;;;;;;5114502;28;20170;-52
2023/02/13 06:35:01;;;;;;;4.82;4.43;;;16.00;53.00;;;;;;5115644;28;20180;-55
2023/02/13 06:37:26;;;;;;;4.80;4.32;;;16.00;53.00;;;;;;5115739;28;20173;-56
2023/02/13 06:39:52;;;;;;;4.78;4.38;;;16.00;53.00;;;;;;5114540;28;20204;-56
2023/02/13 06:42:17;;;;;;;4.97;4.53;;;16.00;53.10;;;;;;5115436;28;20173;-56
2023/02/13 06:44:43;;;;;;;4.60;4.20;;;16.00;53.10;;;;;;5115184;28;20547;-57
2023/02/13 06:47:09;;;;;;;4.60;4.20;;;15.90;53.10;;;;;;5114619;28;20294;-52
2023/02/13 06:49:34;;;;;;;4.70;4.30;;;16.00;53.10;;;;;;5114901;28;20238;-53
2023/02/13 06:52:00;;;;;;;4.57;4.18;;;16.00;53.00;;;;;;5115383;28;20173;-51
2023/02/13 06:54:25;;;;;;;4.53;4.13;;;16.00;53.00;;;;;;5114427;28;20173;-67
2023/02/13 06:56:51;;;;;;;4.47;4.07;;;16.00;53.10;;;;;;5114804;28;20177;-68
2023/02/13 06:59:16;;;;;;;4.70;4.25;;;16.00;53.10;;;;;;5115012;28;20204;-70
2023/02/13 07:01:42;;;;;;;4.28;3.80;;;16.00;53.20;;;;;;5113972;28;20173;-70
2023/02/13 07:04:07;;;;;;;4.78;4.38;;;16.00;53.20;;;;;;5114270;28;20173;-69
2023/02/13 07:06:33;;;;;;;4.05;3.75;;;16.10;53.20;;;;;;5113851;28;20165;-68
2023/02/13 07:09:00;;;;;;;4.97;3.95;;;16.20;53.20;;;;;;5114822;28;20195;-68
2023/02/13 07:11:26;;;;;;;4.03;3.70;;;16.40;53.00;;;;;;5114693;28;20177;-67
2023/02/13 07:13:51;;;;;;;4.07;3.78;;;16.50;52.90;;;;;;5113540;28;20177;-68
2023/02/13 07:16:17;;;;;;;4.55;4.15;;;16.60;52.70;;;;;;5114333;28;20304;-68
2023/02/13 07:18:42;;;;;;;4.75;3.60;;;16.80;52.50;;;;;;5113940;28;20300;-67
2023/02/13 07:21:08;;;;;;;4.45;4.10;;;17.00;52.10;;;;;;5114098;28;20172;-68
2023/02/13 07:23:33;;;;;;;4.15;3.85;;;17.30;51.60;;;;;;5114102;28;20513;-67
2023/02/13 07:25:59;;;;;;;4.15;3.75;;;17.50;51.20;;;;;;5114528;28;20180;-68
2023/02/13 07:28:25;;;;;;;4.22;3.92;;;17.60;51.10;;;;;;5113731;28;20655;-67
2023/02/13 07:30:51;;;;;;;3.72;3.42;;;17.70;50.80;;;;;;5113997;28;20173;-68
2023/02/13 07:33:17;;;;;;;3.95;3.47;;;17.80;50.70;;;;;;5114119;28;20707;-69
2023/02/13 07:35:46;;;;;;;3.70;3.40;;;17.80;50.70;;;;;;5113359;27;20236;-68
2023/02/13 07:38:12;;;;;;;3.72;3.42;;;17.80;50.50;;;;;;5114194;28;20203;-68
2023/02/13 07:40:37;;;;;;;4.03;3.63;;;17.90;50.60;;;;;;5113883;28;20180;-67
2023/02/13 07:43:03;;;;;;;3.40;3.10;;;17.90;50.50;;;;;;5113158;28;20178;-67
2023/02/13 07:45:28;;;;;;;3.95;3.65;;;17.90;50.40;;;;;;5114025;28;20537;-67
2023/02/13 07:47:55;;;;;;;3.67;3.38;;;17.80;50.40;;;;;;5113666;28;20211;-66
2023/02/13 07:50:20;;;;;;;4.45;4.05;;;17.90;50.40;;;;;;5113421;28;20184;-66
2023/02/13 07:52:53;;;;;;;3.90;3.60;;;17.90;50.40;;;;;;5113578;28;20161;-66
2023/02/13 07:55:19;;;;;;;3.85;3.55;;;17.90;50.50;;;;;;5114107;28;20204;-66
2023/02/13 07:57:44;;;;;;;3.83;3.53;;;18.00;50.50;;;;;;5112616;28;20700;-68
2023/02/13 08:00:10;;;;;;;3.33;3.03;;;17.90;50.50;;;;;;5113600;28;20303;-68
2023/02/13 08:02:36;;;;;;;3.60;3.30;;;18.00;50.50;;;;;;5113653;28;20275;-68
2023/02/13 08:05:01;;;;;;;3.53;3.22;;;17.90;50.50;;;;;;5113011;28;20204;-68
2023/02/13 08:07:27;;;;;;;3.78;3.47;;;18.00;50.60;;;;;;5113540;28;20549;-67
2023/02/13 08:12:37;;;;;;;4.03;3.63;;;17.90;50.70;;;;;;5113271;28;20176;-67
2023/02/13 08:15:03;;;;;;;3.80;3.50;;;17.80;50.70;;;;;;5095314;28;20173;-67
2023/02/13 08:17:28;;;;;;;3.70;3.40;;;17.70;50.80;;;;;;5112055;28;20233;-67
2023/02/13 08:19:54;;;;;;;3.55;3.25;;;17.60;50.90;;;;;;5113102;28;20314;-67
2023/02/13 08:22:19;;;;;;;4.15;3.85;;;17.60;51.10;;;;;;5113674;28;20635;-67
2023/02/13 08:24:45;;;;;;;3.40;3.03;;;17.50;51.20;;;;;;5112277;28;20200;-67
2023/02/13 08:27:14;;;;;;;3.83;3.53;;;17.40;51.50;;;;;;5113329;28;20599;-67
2023/02/13 08:29:40;;;;;;;4.00;3.60;;;17.40;51.70;;;;;;5112916;28;20196;-67
2023/02/13 08:32:06;;;;;;;3.78;3.47;;;17.30;51.70;;;;;;5112645;28;20581;-68
2023/02/13 08:34:32;;;;;;;3.50;3.20;;;17.40;51.70;;;;;;5113282;28;20581;-68
2023/02/13 08:36:57;;;;;;;3.70;3.40;;;17.40;51.50;;;;;;5113277;28;20173;-67
2023/02/13 08:39:23;;;;;;;4.00;3.70;;;17.50;51.60;;;;;;5112301;28;20250;-67
2023/02/13 08:41:48;;;;;;;4.25;3.95;;;17.40;51.50;;;;;;5112821;28;20222;-68
2023/02/13 08:44:14;;;;;;;3.47;3.20;;;17.50;51.50;;;;;;5113130;28;20172;-68
2023/02/13 08:46:39;;;;;;;3.88;3.58;;;17.60;51.50;;;;;;5112071;28;20176;-67
2023/02/13 08:49:05;;;;;;;3.65;3.35;;;17.60;51.40;;;;;;5113177;28;20230;-66
2023/02/13 08:51:31;;;;;;;3.17;2.97;;;17.60;51.40;;;;;;5113197;28;20211;-65
2023/02/13 08:53:57;;;;;;;3.90;3.58;;;17.60;51.40;;;;;;5112335;28;20218;-66
2023/02/13 08:56:22;;;;;;;3.88;3.58;;;17.60;51.40;;;;;;5112953;28;20260;-71
2023/02/13 08:58:49;;;;;;;3.60;3.30;;;17.50;51.50;;;;;;5112540;28;20201;-66
2023/02/13 09:01:14;;;;;;;4.18;3.80;;;17.50;52.00;;;;;;5112150;28;20318;-68
2023/02/13 09:03:40;;;;;;;4.05;3.65;;;17.50;52.30;;;;;;5112422;28;20267;-68
2023/02/13 09:06:05;;;;;;;4.38;3.65;;;17.50;52.40;;;;;;5112371;28;20204;-68
2023/02/13 09:08:31;;;;;;;4.38;3.97;;;17.40;52.40;;;;;;5112924;28;20201;-65
2023/02/13 09:10:58;;;;;;;4.43;4.03;;;17.50;52.50;;;;;;5113213;28;20530;-73
2023/02/13 09:13:23;;;;;;;4.20;3.40;;;17.50;52.60;;;;;;5112144;28;20244;-75
2023/02/13 09:15:49;;;;;;;4.07;3.78;;;17.60;52.80;;;;;;5112374;28;20323;-73
2023/02/13 09:18:14;;;;;;;3.85;3.45;;;17.70;52.90;;;;;;5112804;28;20208;-68
2023/02/13 09:20:40;;;;;;;4.93;4.07;;;17.60;52.90;;;;;;5111685;28;20195;-66
2023/02/13 09:23:05;;;;;;;3.75;3.45;;;17.70;53.00;;;;;;5112830;28;20173;-65
2023/02/13 09:25:31;;;;;;;4.30;3.85;;;17.70;53.10;;;;;;5112756;28;20165;-67
2023/02/13 09:27:58;;;;;;;3.65;3.35;;;17.60;53.10;;;;;;5113221;28;20199;-68
2023/02/13 09:30:23;;;;;;;4.85;3.33;;;17.60;53.00;;;;;;5115750;28;20169;-68
2023/02/13 09:32:50;;;;;;;3.60;3.30;;;17.60;53.30;;;;;;5116656;28;20530;-68
2023/02/13 09:35:16;;;;;;;5.30;3.60;;;17.60;53.30;;;;;;5116062;28;20212;-67
2023/02/13 09:37:42;;;;;;;3.75;3.42;;;17.60;53.20;;;;;;5116494;28;20183;-67
2023/02/13 09:40:30;;;;;;;6.10;3.50;;;17.60;53.10;;;;;;5116426;28;20299;-67
2023/02/13 09:43:21;;;;;;;4.20;3.90;;;17.60;53.30;;;;;;5114602;28;20173;-67
2023/02/13 09:45:46;;;;;;;3.40;3.10;;;17.60;53.20;;;;;;5084320;28;20185;-66
2023/02/13 09:48:17;;;;;;;3.85;3.45;;;17.60;53.20;;;;;;5116479;28;20654;-67
2023/02/13 09:50:42;;;;;;;3.72;3.42;;;17.60;53.10;;;;;;5098267;28;20230;-66
2023/02/13 09:53:10;;;;;;;4.20;3.80;;;17.60;53.10;;;;;;5098519;28;20169;-66
2023/02/13 09:55:56;;;;;;;4.00;3.60;;;17.70;53.20;;;;;;5114298;28;20296;-68
2023/02/13 09:58:46;;;;;;;5.38;3.67;;;17.60;53.30;;;;;;5115269;28;20561;-72
2023/02/13 10:01:28;;;;;;;3.83;3.30;;;17.60;53.60;;;;;;5100682;28;20643;-73
2023/02/13 10:04:18;;;;;;;4.40;4.00;;;17.50;54.00;;;;;;5115410;28;20230;-67
2023/02/13 10:06:51;;;;;;;5.32;3.85;;;17.50;53.90;;;;;;5116003;28;20532;-69
2023/02/13 10:09:27;;;;;;;4.15;3.72;;;17.50;53.80;;;;;;5114645;28;20204;-69
2023/02/13 10:12:11;;;;;;;4.63;4.15;;;17.60;53.60;;;;;;5114753;28;20184;-69
2023/02/13 10:14:37;;;;;;;4.20;3.80;;;17.50;53.70;;;;;;5115677;28;20180;-69
2023/02/13 10:17:06;;;;;;;4.43;4.03;;;17.50;53.60;;;;;;5113832;28;20232;-69
2023/02/13 10:19:35;;;;;;;4.68;4.00;;;17.50;53.70;;;;;;5097498;28;20549;-69
2023/02/13 10:22:30;;;;;;;4.10;3.58;;;17.50;53.80;;;;;;5097663;28;20177;-70
2023/02/13 10:24:55;;;;;;;4.32;3.90;;;17.50;54.40;;;;;;5108982;28;20234;-69
2023/02/13 10:27:27;;;;;;;5.18;3.67;;;17.40;53.80;;;;;;5115601;28;20169;-69
2023/02/13 10:30:11;;;;;;;4.43;3.88;;;17.40;53.80;;;;;;5115453;28;20208;-72
2023/02/13 10:35:47;;;;;;;4.63;3.90;;;17.50;53.90;;;;;;5114260;28;20241;-70
2023/02/13 10:38:15;;;;;;;4.60;4.10;;;17.40;53.80;;;;;;5096691;28;20636;-69
2023/02/13 10:40:46;;;;;;;4.30;3.90;;;17.50;53.60;;;;;;5112810;28;20185;-69
2023/02/13 10:43:15;;;;;;;3.95;3.65;;;17.50;53.80;;;;;;5097449;28;20250;-69
2023/02/13 10:46:05;;;;;;;5.95;4.07;;;17.50;53.80;;;;;;5096079;28;20177;-68
2023/02/13 10:48:33;;;;;;;4.43;3.63;;;17.50;53.90;;;;;;5115306;28;20178;-68
2023/02/13 10:51:08;;;;;;;5.35;4.25;;;17.40;54.00;;;;;;5114937;28;20248;-68
2023/02/13 10:53:49;;;;;;;4.40;4.00;;;17.30;54.00;;;;;;5113117;28;20173;-68
2023/02/13 10:56:50;;;;;;;4.22;3.83;;;17.30;54.10;;;;;;5113900;28;20263;-69
2023/02/13 10:59:42;;;;;;;4.22;3.88;;;17.30;54.20;;;;;;5079922;28;20659;-70
2023/02/13 11:02:40;;;;;;;4.47;4.07;;;17.30;54.20;;;;;;5115140;28;20177;-70
2023/02/13 11:05:17;;;;;;;4.43;3.90;;;17.30;54.30;;;;;;5111031;28;20186;-69
2023/02/13 11:07:45;;;;;;;4.93;4.40;;;17.20;54.30;;;;;;5113661;28;20188;-69
2023/02/13 11:10:15;;;;;;;4.05;3.75;;;17.20;54.40;;;;;;5115097;28;20219;-69
2023/02/13 11:12:40;;;;;;;4.88;4.47;;;17.20;54.40;;;;;;5113892;28;20213;-69
2023/02/13 11:15:07;;;;;;;4.78;4.28;;;17.20;54.50;;;;;;5114899;28;20205;-69
2023/02/13 11:17:38;;;;;;;4.18;3.78;;;17.20;54.40;;;;;;5112891;28;20377;-69
2023/02/13 11:20:20;;;;;;;4.25;3.88;;;17.20;54.50;;;;;;5112548;28;20220;-70
2023/02/13 11:22:46;;;;;;;4.57;4.18;;;17.20;54.50;;;;;;5098408;28;20623;-70
2023/02/13 11:25:20;;;;;;;4.25;3.95;;;17.10;54.50;;;;;;5096341;28;20184;-69
2023/02/13 11:27:46;;;;;;;5.47;4.03;;;17.20;54.60;;;;;;5113607;28;20290;-69
2023/02/13 11:30:27;;;;;;;4.47;4.07;;;17.20;54.40;;;;;;5113213;28;20173;-69
2023/02/13 11:33:28;;;;;;;4.78;4.38;;;17.30;54.20;;;;;;5113924;28;20169;-69
2023/02/13 11:36:13;;;;;;;4.18;3.78;;;17.30;54.10;;;;;;5050630;28;20166;-69
2023/02/13 11:38:39;;;;;;;4.55;4.10;;;17.30;54.60;;;;;;5109270;28;20219;-70
2023/02/13 11:41:09;;;;;;;4.80;4.40;;;17.30;54.00;;;;;;5113432;28;20288;-68
2023/02/13 11:43:59;;;;;;;5.28;4.88;;;17.40;54.00;;;;;;5112745;28;20229;-69
2023/02/13 11:46:25;;;;;;;4.50;4.10;;;17.40;54.00;;;;;;5113871;28;20256;-68
2023/02/13 11:49:04;;;;;;;5.10;4.70;;;17.30;54.10;;;;;;5094969;28;20505;-68
2023/02/13 11:51:38;;;;;;;4.60;4.05;;;17.30;54.20;;;;;;5112991;28;20197;-67
2023/02/13 11:54:04;;;;;;;4.97;4.47;;;17.30;54.20;;;;;;5112838;28;20238;-68
2023/02/13 11:56:48;;;;;;;5.00;4.38;;;17.30;54.30;;;;;;5112022;28;20180;-68
2023/02/13 11:59:14;;;;;;;5.05;4.55;;;17.30;54.30;;;;;;5112759;28;20215;-70
2023/02/13 12:01:40;;;;;;;4.88;4.47;;;17.30;54.10;;;;;;5113411;28;20169;-69
2023/02/13 12:04:17;;;;;;;4.88;4.47;;;17.40;54.00;;;;;;5112949;28;20181;-69
2023/02/13 12:07:09;;;;;;;5.28;4.78;;;17.50;53.90;;;;;;5112584;28;20169;-68
2023/02/13 12:09:35;;;;;;;5.53;5.03;;;17.40;54.00;;;;;;5109361;28;20181;-68
2023/02/13 12:12:01;;;;;;;5.40;4.90;;;17.30;54.10;;;;;;5095393;28;20221;-68
2023/02/13 12:14:30;;;;;;;5.50;5.05;;;17.40;54.10;;;;;;5112164;28;20217;-69
2023/02/13 12:17:03;;;;;;;5.82;5.32;;;17.30;54.10;;;;;;5094192;28;20264;-69
2023/02/13 12:19:40;;;;;;;5.43;4.90;;;17.30;54.20;;;;;;5095829;28;20220;-69
2023/02/13 12:22:29;;;;;;;5.18;4.65;;;17.30;54.10;;;;;;5112027;28;20296;-71
2023/02/13 12:25:34;;;;;;;5.75;5.10;;;17.30;54.30;;;;;;5112428;28;20188;-66
2023/02/13 12:28:09;;;;;;;4.75;4.22;;;17.40;54.30;;;;;;5111972;28;20770;-69
2023/02/13 12:30:44;;;;;;;5.55;5.05;;;17.40;54.50;;;;;;5111186;28;20180;-70
2023/02/13 12:33:24;;;;;;;5.13;4.65;;;17.40;55.30;;;;;;5112575;28;20525;-68
2023/02/13 12:35:53;;;;;;;5.97;5.07;;;17.40;55.00;;;;;;5110929;28;20175;-67
2023/02/13 12:38:34;;;;;;;6.45;4.85;;;17.40;55.00;;;;;;5112003;28;20184;-68
2023/02/13 12:41:12;;;;;;;5.30;4.80;;;17.40;55.10;;;;;;5112827;28;20260;-68
2023/02/13 12:43:56;;;;;;;5.53;5.03;;;17.40;55.20;;;;;;5111152;28;20179;-69
2023/02/13 12:46:30;;;;;;;5.80;5.30;;;17.40;55.10;;;;;;5136268;27;20181;-69
2023/02/13 12:48:58;;;;;;;5.97;5.30;;;17.50;55.30;;;;;;5112505;28;20217;-67
2023/02/13 12:51:36;;;;;;;5.70;5.20;;;17.40;55.30;;;;;;5109311;28;20207;-67
2023/02/13 12:54:41;;;;;;;6.78;5.00;;;17.40;55.10;;;;;;5112523;28;20161;-66
2023/02/13 12:57:22;;;;;;;5.65;5.15;;;17.40;55.20;;;;;;5110398;28;20173;-67
2023/02/13 13:00:23;;;;;;;5.22;4.75;;;17.50;55.20;;;;;;5111864;28;20215;-70
2023/02/13 13:03:00;;;;;;;5.30;4.80;;;17.50;55.20;;;;;;5113856;28;20181;-68
2023/02/13 13:05:49;;;;;;;6.80;5.70;;;17.50;55.20;;;;;;5116749;28;20181;-68
2023/02/13 13:08:35;;;;;;;5.57;5.00;;;17.50;55.10;;;;;;5117132;28;20184;-67
2023/02/13 13:11:25;;;;;;;5.25;4.75;;;17.50;55.10;;;;;;5115770;28;20608;-66
2023/02/13 13:13:59;;;;;;;5.68;5.18;;;17.50;55.10;;;;;;5116129;28;20531;-66
2023/02/13 13:16:41;;;;;;;5.18;4.78;;;17.50;55.20;;;;;;5116956;28;20228;-66
2023/02/13 13:19:31;;;;;;;4.97;4.57;;;17.60;55.20;;;;;;5115611;28;20553;-67
2023/02/13 13:22:04;;;;;;;5.22;4.82;;;17.60;55.20;;;;;;5116019;28;20170;-67
2023/02/13 13:24:57;;;;;;;6.43;5.72;;;17.60;55.20;;;;;;5116895;28;20173;-66
2023/02/13 13:27:25;;;;;;;5.68;5.15;;;17.60;55.20;;;;;;5116386;28;20181;-67
2023/02/13 13:29:57;;;;;;;6.72;5.45;;;17.60;55.30;;;;;;5115358;28;20173;-70
2023/02/13 13:32:22;;;;;;;5.82;5.32;;;17.60;55.50;;;;;;5115471;28;20200;-66
2023/02/13 13:34:48;;;;;;;5.90;5.40;;;17.60;55.70;;;;;;5115159;28;20189;-68
2023/02/13 13:37:20;;;;;;;5.18;4.78;;;17.70;55.60;;;;;;5116708;28;20170;-66
2023/02/13 13:40:00;;;;;;;5.93;5.40;;;17.80;55.60;;;;;;5114854;28;20240;-65
2023/02/13 13:42:38;;;;;;;6.43;5.53;;;17.80;55.40;;;;;;5115990;28;20177;-64
2023/02/13 13:45:34;;;;;;;5.28;4.88;;;17.90;55.30;;;;;;5116675;28;20180;-63
2023/02/13 13:48:28;;;;;;;5.45;4.95;;;17.90;55.70;;;;;;5115627;28;20589;-66
2023/02/13 13:50:53;;;;;;;5.78;5.28;;;18.00;54.90;;;;;;5115986;28;20254;-63
2023/02/13 13:53:19;;;;;;;5.55;5.05;;;18.10;54.80;;;;;;5115312;28;20204;-63
2023/02/13 13:55:51;;;;;;;5.88;5.35;;;18.20;54.70;;;;;;5114082;28;20173;-65
2023/02/13 13:58:35;;;;;;;5.70;5.20;;;18.10;54.60;;;;;;5116103;28;20169;-68